الصفحة الرئيسية
METAR-TAF:

METAR-TAF

مطار :

مطار مراكش المنارة الدولي

مراكش, المغرب

دائرة عرض: 31-37N, خط طول: 008-02W, ارتفاع: 468 متر

مراقبة الطقس الحالي

تاريخ ووقت الإصدار 11 دقيقة قبل الساعة 03:30UTC
ريح 4 عقدة من الغرب/الجنوب الغربي
درجة الحرارة 23°درجة مئوية
الرطوبة 50%
ضغط 1016 hPa
الرؤية 10 كم أو أكثر
الغيوم لا تقل 1500 م ولا وجود لمزنة ركامية السحاب الأسود

METAR: GMMX 270330Z 24004KT CAVOK 23/12 Q1016 NOSIG

زمن: 04:41 (03:41 UTC)

توقعات

تاريخ ووقت الإصدار 4ساعات و 41 دقيقة قبل الساعة 23:00UTC
التوقعات صالحة من27 الساعة 00 UTC إلى 28 الساعة 06 UTC
ريح 4 عقدة من الشرق/الشمال الشرقي
الرؤية: 8000 متر
مؤقت
من 27 الساعة 15 UTC إلى 27 الساعة 21 UTC
ريح 16 عقدة من الشمال/الشمال الغربي

TAF: GMMX 262300Z 2700/2806 06004KT 8000 NSC TEMPO 2715/2721 34016KT

أرصاد الطقس والتوقعات من أكثر من 4000 مطار (تقارير الطقس للمطار METAR والتنبؤ بالطقس بالمطارTAF).

المحطات المتاحة هي النقط الصفراء والحمراء على الخريطة.

حرك المؤشر فوق النقطة لمعرفة اسم المحطة.

ثم انقر لمعرفة أرصاد وتوقعات الطقس.

لتغيير الخارطة: اضغط على الأزرار الخضراء مع رمز الصليب الأسود للتكبير. على الزر الأخضر مع شرطة للتصغير، أو على الأسهم الخضراء للخرائط المجاورة.


METAR-TAF: